createdAt,value
2018-01-14T00:00:33.646Z,91.77
2018-01-14T00:03:01.672Z,92.15
2018-01-14T00:05:30.107Z,92.62
2018-01-14T00:07:58.167Z,92.25
2018-01-14T00:10:26.059Z,92.10
2018-01-14T00:12:54.882Z,92.13
2018-01-14T00:15:23.419Z,92.27
2018-01-14T00:17:52.037Z,92.23
2018-01-14T00:20:20.833Z,92.25
2018-01-14T00:22:49.225Z,91.96
2018-01-14T00:25:18.648Z,92.02
2018-01-14T00:27:47.257Z,92.03
2018-01-14T00:30:16.382Z,92.15
2018-01-14T00:32:44.468Z,93.01
2018-01-14T00:35:12.844Z,92.99
2018-01-14T00:37:41.306Z,92.90
2018-01-14T00:40:09.198Z,92.58
2018-01-14T00:42:36.931Z,92.04
2018-01-14T00:45:04.653Z,92.67
2018-01-14T00:47:32.353Z,92.89
2018-01-14T00:50:00.113Z,92.87
2018-01-14T00:52:27.869Z,92.84
2018-01-14T00:54:55.638Z,93.08
2018-01-14T00:57:23.338Z,92.84
2018-01-14T00:59:51.077Z,92.42
2018-01-14T01:02:18.801Z,92.80
2018-01-14T01:04:46.546Z,91.89
2018-01-14T01:07:14.376Z,89.10
2018-01-14T01:09:42.048Z,90.59
2018-01-14T01:12:09.929Z,91.41
2018-01-14T01:14:37.606Z,91.81
2018-01-14T01:17:05.266Z,91.47
2018-01-14T01:19:32.994Z,91.55
2018-01-14T01:22:00.736Z,91.73
2018-01-14T01:24:28.526Z,91.61
2018-01-14T01:26:56.239Z,92.20
2018-01-14T01:29:23.934Z,92.35
2018-01-14T01:31:51.673Z,91.96
2018-01-14T01:34:19.465Z,91.13
2018-01-14T01:36:47.175Z,91.50
2018-01-14T01:39:14.961Z,92.11
2018-01-14T01:41:42.675Z,91.94
2018-01-14T01:44:10.430Z,92.42
2018-01-14T01:46:38.184Z,92.80
2018-01-14T01:49:05.962Z,92.43
2018-01-14T01:51:33.661Z,92.26
2018-01-14T01:54:01.389Z,92.23
2018-01-14T01:56:29.162Z,92.10
2018-01-14T01:58:57.826Z,92.18
2018-01-14T02:01:25.597Z,92.03
2018-01-14T02:03:53.308Z,91.75
2018-01-14T02:06:21.105Z,92.41
2018-01-14T02:08:48.842Z,92.28
2018-01-14T02:11:16.543Z,91.83
2018-01-14T02:13:44.297Z,91.45
2018-01-14T02:16:12.012Z,91.28
2018-01-14T02:18:39.745Z,91.50
2018-01-14T02:21:07.427Z,91.75
2018-01-14T02:23:35.133Z,92.12
2018-01-14T02:26:02.844Z,91.95
2018-01-14T02:28:30.552Z,91.56
2018-01-14T02:30:58.379Z,91.31
2018-01-14T02:33:26.096Z,90.99
2018-01-14T02:35:53.793Z,90.66
2018-01-14T02:38:21.553Z,90.19
2018-01-14T02:40:49.338Z,89.83
2018-01-14T02:43:17.031Z,89.96
2018-01-14T02:45:44.858Z,89.35
2018-01-14T02:48:12.562Z,89.79
2018-01-14T02:50:40.309Z,90.15
2018-01-14T02:53:08.038Z,90.70
2018-01-14T02:55:35.779Z,91.60
2018-01-14T02:58:03.441Z,91.51
2018-01-14T03:00:31.327Z,91.25
2018-01-14T03:02:59.095Z,91.05
2018-01-14T03:05:26.804Z,91.28
2018-01-14T03:07:54.561Z,91.36
2018-01-14T03:10:22.318Z,92.29
2018-01-14T03:12:50.048Z,92.16
2018-01-14T03:15:17.798Z,91.89
2018-01-14T03:17:45.514Z,92.07
2018-01-14T03:20:13.848Z,92.46
2018-01-14T03:22:41.549Z,92.26
2018-01-14T03:25:09.276Z,91.48
2018-01-14T03:27:36.962Z,92.31
2018-01-14T03:30:04.749Z,92.36
2018-01-14T03:32:32.455Z,91.84
2018-01-14T03:35:00.176Z,91.78
2018-01-14T03:37:27.901Z,91.65
2018-01-14T03:39:55.573Z,91.64
2018-01-14T03:42:23.335Z,91.09
2018-01-14T03:44:51.068Z,90.71
2018-01-14T03:47:18.739Z,91.21
2018-01-14T03:49:46.479Z,91.02
2018-01-14T03:52:14.287Z,91.06
2018-01-14T03:54:41.947Z,90.56
2018-01-14T03:57:09.622Z,88.39
2018-01-14T03:59:37.499Z,88.85
2018-01-14T04:02:05.164Z,89.53
2018-01-14T04:04:32.911Z,89.60
2018-01-14T04:07:00.629Z,89.79
2018-01-14T04:09:28.405Z,90.22
2018-01-14T04:11:56.085Z,90.95
2018-01-14T04:14:23.783Z,91.12
2018-01-14T04:16:51.530Z,91.69
2018-01-14T04:19:21.981Z,91.41
2018-01-14T04:21:49.844Z,91.49
2018-01-14T04:24:17.603Z,91.18
2018-01-14T04:26:45.365Z,91.16
2018-01-14T04:29:13.074Z,91.01
2018-01-14T04:31:40.748Z,90.99
2018-01-14T04:34:08.488Z,90.56
2018-01-14T04:36:36.240Z,89.92
2018-01-14T04:39:04.124Z,90.76
2018-01-14T04:41:31.874Z,91.13
2018-01-14T04:43:59.580Z,90.96
2018-01-14T04:46:27.262Z,90.89
2018-01-14T04:48:54.993Z,91.20
2018-01-14T04:51:22.675Z,91.50
2018-01-14T04:53:50.432Z,91.27
2018-01-14T04:56:18.156Z,91.54
2018-01-14T04:58:45.864Z,91.51
2018-01-14T05:01:13.616Z,91.36
2018-01-14T05:03:41.332Z,91.19
2018-01-14T05:06:09.087Z,89.91
2018-01-14T05:08:36.805Z,88.45
2018-01-14T05:11:04.511Z,88.52
2018-01-14T05:13:32.363Z,88.73
2018-01-14T05:16:00.059Z,89.60
2018-01-14T05:18:27.806Z,90.02
2018-01-14T05:20:55.564Z,90.28
2018-01-14T05:23:23.289Z,90.08
2018-01-14T05:25:51.032Z,90.20
2018-01-14T05:28:18.758Z,90.63
2018-01-14T05:30:46.439Z,89.83
2018-01-14T05:33:14.113Z,88.26
2018-01-14T05:35:41.847Z,87.84
2018-01-14T05:38:09.516Z,89.25
2018-01-14T05:40:37.212Z,90.34
2018-01-14T05:43:04.961Z,89.59
2018-01-14T05:45:32.724Z,89.81
2018-01-14T05:48:00.518Z,89.73
2018-01-14T05:50:28.227Z,89.23
2018-01-14T05:52:55.952Z,89.06
2018-01-14T05:55:23.672Z,89.61
2018-01-14T05:57:51.384Z,89.42
2018-01-14T06:00:19.137Z,89.48
2018-01-14T06:02:46.800Z,89.32
2018-01-14T06:05:14.552Z,89.32
2018-01-14T06:07:42.272Z,89.76
2018-01-14T06:10:10.056Z,89.90
2018-01-14T06:12:37.736Z,89.17
2018-01-14T06:15:05.535Z,88.67
2018-01-14T06:17:33.273Z,88.07
2018-01-14T06:20:01.011Z,86.77
2018-01-14T06:22:28.753Z,83.12
2018-01-14T06:24:56.637Z,86.03
2018-01-14T06:27:24.306Z,87.10
2018-01-14T06:29:52.109Z,87.63
2018-01-14T06:32:19.797Z,88.74
2018-01-14T06:34:47.520Z,90.62
2018-01-14T06:37:15.364Z,90.88
2018-01-14T06:39:43.090Z,90.52
2018-01-14T06:42:10.782Z,90.47
2018-01-14T06:44:38.477Z,89.84
2018-01-14T06:47:06.214Z,89.97
2018-01-14T06:49:33.978Z,89.53
2018-01-14T06:52:01.735Z,89.62
2018-01-14T06:54:29.411Z,89.38
2018-01-14T06:56:57.134Z,90.58
2018-01-14T06:59:24.928Z,89.77
2018-01-14T07:01:52.621Z,89.91
2018-01-14T07:04:20.298Z,89.71
2018-01-14T07:06:48.054Z,90.11
2018-01-14T07:09:15.776Z,90.40
2018-01-14T07:11:43.610Z,89.95
2018-01-14T07:14:11.581Z,89.54
2018-01-14T07:16:39.367Z,89.53
2018-01-14T07:19:07.076Z,88.46
2018-01-14T07:21:34.778Z,88.36
2018-01-14T07:24:02.549Z,89.08
2018-01-14T07:26:30.251Z,89.79
2018-01-14T07:28:57.984Z,90.81
2018-01-14T07:31:25.690Z,90.90
2018-01-14T07:33:53.481Z,90.21
2018-01-14T07:36:21.228Z,89.84
2018-01-14T07:38:49.020Z,90.22
2018-01-14T07:41:16.784Z,90.12
2018-01-14T07:43:44.558Z,89.11
2018-01-14T07:46:12.382Z,87.86
2018-01-14T07:48:40.140Z,88.78
2018-01-14T07:51:07.844Z,89.40
2018-01-14T07:53:35.715Z,89.45
2018-01-14T07:56:03.522Z,90.02
2018-01-14T07:58:31.235Z,89.49
2018-01-14T08:00:58.968Z,89.30
2018-01-14T08:03:26.793Z,86.95
2018-01-14T08:05:54.548Z,84.76
2018-01-14T08:08:22.347Z,81.50
2018-01-14T08:10:51.186Z,81.63
2018-01-14T08:13:19.144Z,84.08
2018-01-14T08:15:46.978Z,85.03
2018-01-14T08:18:14.696Z,83.26
2018-01-14T08:20:42.481Z,81.23
2018-01-14T08:23:11.301Z,77.98
2018-01-14T08:25:39.047Z,79.08
2018-01-14T08:28:06.780Z,81.71
2018-01-14T08:30:34.596Z,81.75
2018-01-14T08:33:02.366Z,84.46
2018-01-14T08:35:30.238Z,84.91
2018-01-14T08:37:57.927Z,85.24
2018-01-14T08:40:25.798Z,83.88
2018-01-14T08:42:53.500Z,77.05
2018-01-14T08:45:22.714Z,79.45
2018-01-14T08:47:50.671Z,78.56
2018-01-14T08:50:18.555Z,78.06
2018-01-14T08:52:46.287Z,78.40
2018-01-14T08:55:14.033Z,79.17
2018-01-14T08:57:42.981Z,80.80
2018-01-14T09:00:10.760Z,81.77
2018-01-14T09:02:38.489Z,80.03
2018-01-14T09:05:06.212Z,80.03
2018-01-14T09:07:33.970Z,81.24
2018-01-14T09:10:01.702Z,81.89
2018-01-14T09:12:29.402Z,82.16
2018-01-14T09:14:57.258Z,81.52
2018-01-14T09:17:25.927Z,80.14
2018-01-14T09:19:53.737Z,82.31
2018-01-14T09:22:21.483Z,81.34
2018-01-14T09:24:49.268Z,80.44
2018-01-14T09:27:16.986Z,79.43
2018-01-14T09:29:44.733Z,77.76
2018-01-14T09:32:12.483Z,78.62
2018-01-14T09:34:40.198Z,77.49
2018-01-14T09:37:07.894Z,76.94
2018-01-14T09:39:35.820Z,77.19
2018-01-14T09:42:03.579Z,77.12
2018-01-14T09:44:31.256Z,77.45
2018-01-14T09:46:59.209Z,75.95
2018-01-14T09:49:27.265Z,74.68
2018-01-14T09:51:55.052Z,74.53
2018-01-14T09:54:22.885Z,74.04
2018-01-14T09:56:50.747Z,74.79
2018-01-14T09:59:18.525Z,75.47
2018-01-14T10:01:46.286Z,76.08
2018-01-14T10:04:14.079Z,71.99
2018-01-14T10:06:41.800Z,72.26
2018-01-14T10:09:09.551Z,72.93
2018-01-14T10:11:37.471Z,73.50
2018-01-14T10:14:05.203Z,73.93
2018-01-14T10:16:32.956Z,72.97
2018-01-14T10:19:00.764Z,73.04
2018-01-14T10:21:28.524Z,72.12
2018-01-14T10:23:57.101Z,71.50
2018-01-14T10:26:24.853Z,73.25
2018-01-14T10:28:52.583Z,71.48
2018-01-14T10:31:20.284Z,72.58
2018-01-14T10:33:48.531Z,71.59
2018-01-14T10:36:16.282Z,70.76
2018-01-14T10:38:44.029Z,70.04
2018-01-14T10:41:11.802Z,70.04
2018-01-14T10:43:39.488Z,70.84
2018-01-14T10:46:07.164Z,71.02
2018-01-14T10:48:34.906Z,70.65
2018-01-14T10:51:02.705Z,68.03
2018-01-14T10:53:30.384Z,67.92
2018-01-14T10:55:58.163Z,69.43
2018-01-14T10:58:25.987Z,69.08
2018-01-14T11:00:58.739Z,68.88
2018-01-14T11:03:26.540Z,68.91
2018-01-14T11:05:55.112Z,68.58
2018-01-14T11:08:23.615Z,68.80
2018-01-14T11:10:51.399Z,68.19
2018-01-14T11:13:19.208Z,68.94
2018-01-14T11:15:46.926Z,70.84
2018-01-14T11:18:14.683Z,70.05
2018-01-14T11:20:42.387Z,68.08
2018-01-14T11:23:10.139Z,65.95
2018-01-14T11:25:37.887Z,68.14
2018-01-14T11:28:05.575Z,67.92
2018-01-14T11:30:33.381Z,66.90
2018-01-14T11:33:01.131Z,67.49
2018-01-14T11:35:28.848Z,66.39
2018-01-14T11:37:56.544Z,68.49
2018-01-14T11:40:24.319Z,67.59
2018-01-14T11:42:53.332Z,68.31
2018-01-14T11:45:21.072Z,67.44
2018-01-14T11:47:48.834Z,67.08
2018-01-14T11:50:16.506Z,65.73
2018-01-14T11:52:44.199Z,66.40
2018-01-14T11:55:11.961Z,69.04
2018-01-14T11:57:39.722Z,68.64
2018-01-14T12:00:07.598Z,66.55
2018-01-14T12:02:35.332Z,67.53
2018-01-14T12:05:03.092Z,67.61
2018-01-14T12:07:30.913Z,66.77
2018-01-14T12:09:58.658Z,66.53
2018-01-14T12:12:26.430Z,67.10
2018-01-14T12:14:54.175Z,65.83
2018-01-14T12:17:22.039Z,66.44
2018-01-14T12:19:49.801Z,67.42
2018-01-14T12:22:17.502Z,70.28
2018-01-14T12:24:45.249Z,72.09
2018-01-14T12:27:13.301Z,73.20
2018-01-14T12:29:42.284Z,74.05
2018-01-14T12:32:10.030Z,74.73
2018-01-14T12:34:40.815Z,75.18
2018-01-14T12:37:08.547Z,75.45
2018-01-14T12:39:36.322Z,76.04
2018-01-14T12:42:04.106Z,75.67
2018-01-14T12:44:31.866Z,76.66
2018-01-14T12:47:00.827Z,76.15
2018-01-14T12:49:28.546Z,77.05
2018-01-14T12:51:56.319Z,76.72
2018-01-14T12:54:24.058Z,77.51
2018-01-14T12:56:51.779Z,77.98
2018-01-14T12:59:19.548Z,73.84
2018-01-14T13:01:47.288Z,71.70
2018-01-14T13:04:15.049Z,70.07
2018-01-14T13:06:42.748Z,69.42
2018-01-14T13:09:11.177Z,67.53
2018-01-14T13:11:39.009Z,69.73
2018-01-14T13:14:06.796Z,68.47
2018-01-14T13:16:34.492Z,67.19
2018-01-14T13:19:02.280Z,67.00
2018-01-14T13:21:30.023Z,68.55
2018-01-14T13:23:57.806Z,68.04
2018-01-14T13:26:25.515Z,68.49
2018-01-14T13:28:53.361Z,68.38
2018-01-14T13:31:21.076Z,68.90
2018-01-14T13:33:48.822Z,68.46
2018-01-14T13:36:16.628Z,68.01
2018-01-14T13:38:45.532Z,68.41
2018-01-14T13:41:13.617Z,68.00
2018-01-14T13:43:41.318Z,67.92
2018-01-14T13:46:09.020Z,68.36
2018-01-14T13:48:37.491Z,67.17
2018-01-14T13:51:05.810Z,67.10
2018-01-14T13:53:33.570Z,67.24
2018-01-14T13:56:01.840Z,67.86
2018-01-14T13:58:29.585Z,66.36
2018-01-14T14:00:57.428Z,67.64
2018-01-14T14:03:25.180Z,66.40
2018-01-14T14:05:52.947Z,67.32
2018-01-14T14:08:20.684Z,66.81
2018-01-14T14:10:48.980Z,67.49
2018-01-14T14:13:16.762Z,66.93
2018-01-14T14:15:44.609Z,68.49
2018-01-14T14:18:12.315Z,67.69
2018-01-14T14:20:40.067Z,69.05
2018-01-14T14:23:07.866Z,68.49
2018-01-14T14:25:35.871Z,68.83
2018-01-14T14:28:03.617Z,69.09
2018-01-14T14:30:31.494Z,68.73
2018-01-14T14:32:59.249Z,68.71
2018-01-14T14:35:27.047Z,68.85
2018-01-14T14:37:54.970Z,68.88
2018-01-14T14:40:22.715Z,68.73
2018-01-14T14:42:50.503Z,68.62
2018-01-14T14:45:18.258Z,67.79
2018-01-14T14:47:46.056Z,67.60
2018-01-14T14:50:13.810Z,68.71
2018-01-14T14:52:41.687Z,69.76
2018-01-14T14:55:09.529Z,68.76
2018-01-14T14:57:37.244Z,67.38
2018-01-14T15:00:05.640Z,69.48
2018-01-14T15:02:34.051Z,69.20
2018-01-14T15:05:01.753Z,67.71
2018-01-14T15:07:29.484Z,69.23
2018-01-14T15:09:57.449Z,69.97
2018-01-14T15:12:25.204Z,70.33
2018-01-14T15:14:53.019Z,69.46
2018-01-14T15:17:20.784Z,69.14
2018-01-14T15:19:48.578Z,67.99
2018-01-14T15:22:16.536Z,68.69
2018-01-14T15:24:44.314Z,68.33
2018-01-14T15:27:12.531Z,68.33
2018-01-14T15:29:40.245Z,68.80
2018-01-14T15:32:07.996Z,70.42
2018-01-14T15:34:35.782Z,69.03
2018-01-14T15:37:03.627Z,69.15
2018-01-14T15:39:31.387Z,70.87
2018-01-14T15:41:59.217Z,70.92
2018-01-14T15:44:26.960Z,71.98
2018-01-14T15:46:54.663Z,70.46
2018-01-14T15:49:22.482Z,70.43
2018-01-14T15:51:50.194Z,72.33
2018-01-14T15:54:17.903Z,71.96
2018-01-14T15:56:45.823Z,71.01
2018-01-14T15:59:13.534Z,70.21
2018-01-14T16:01:41.331Z,70.27
2018-01-14T16:04:09.168Z,71.13
2018-01-14T16:06:36.972Z,71.73
2018-01-14T16:09:04.864Z,69.14
2018-01-14T16:11:32.633Z,70.48
2018-01-14T16:14:00.352Z,71.23
2018-01-14T16:16:28.320Z,71.46
2018-01-14T16:18:56.308Z,72.24
2018-01-14T16:21:24.110Z,71.80
2018-01-14T16:23:51.866Z,70.93
2018-01-14T16:26:19.678Z,70.26
2018-01-14T16:28:48.078Z,71.66
2018-01-14T16:31:15.954Z,72.36
2018-01-14T16:33:44.766Z,74.00
2018-01-14T16:36:12.562Z,74.27
2018-01-14T16:38:40.385Z,74.47
2018-01-14T16:41:08.235Z,73.41
2018-01-14T16:43:36.472Z,73.88
2018-01-14T16:46:04.293Z,73.10
2018-01-14T16:48:32.270Z,73.66
2018-01-14T16:51:00.160Z,72.41
2018-01-14T16:53:27.964Z,72.13
2018-01-14T16:55:55.775Z,71.50
2018-01-14T16:58:23.722Z,73.60
2018-01-14T17:00:51.709Z,74.71
2018-01-14T17:03:19.592Z,77.66
2018-01-14T17:05:47.509Z,79.48
2018-01-14T17:08:15.421Z,79.61
2018-01-14T17:10:43.242Z,80.06
2018-01-14T17:13:12.138Z,79.35
2018-01-14T17:15:39.990Z,78.08
2018-01-14T17:18:08.592Z,74.03
2018-01-14T17:20:36.566Z,72.34
2018-01-14T17:23:04.482Z,71.37
2018-01-14T17:25:32.334Z,72.31
2018-01-14T17:28:00.981Z,71.04
2018-01-14T17:30:29.473Z,72.02
2018-01-14T17:32:57.366Z,70.26
2018-01-14T17:35:25.214Z,71.22
2018-01-14T17:37:53.103Z,70.90
2018-01-14T17:40:20.959Z,72.34
2018-01-14T17:42:49.028Z,71.78
2018-01-14T17:45:16.833Z,75.02
2018-01-14T17:47:44.955Z,76.78
2018-01-14T17:50:12.785Z,78.62
2018-01-14T17:52:41.421Z,78.60
2018-01-14T17:55:09.294Z,78.28
2018-01-14T17:57:37.239Z,75.99
2018-01-14T18:00:05.068Z,77.48
2018-01-14T18:02:33.249Z,77.15
2018-01-14T18:05:01.187Z,76.78
2018-01-14T18:07:29.108Z,75.51
2018-01-14T18:09:57.009Z,77.17
2018-01-14T18:12:24.747Z,76.35
2018-01-14T18:14:52.518Z,77.17
2018-01-14T18:17:27.285Z,78.11
2018-01-14T18:19:56.489Z,78.87
2018-01-14T18:22:25.504Z,79.59
2018-01-14T18:24:53.447Z,77.68
2018-01-14T18:27:21.788Z,77.55
2018-01-14T18:29:49.705Z,76.44
2018-01-14T18:32:17.580Z,77.04
2018-01-14T18:34:45.407Z,78.82
2018-01-14T18:37:13.966Z,78.80
2018-01-14T18:39:41.998Z,80.78
2018-01-14T18:42:11.822Z,81.31
2018-01-14T18:44:39.606Z,81.28
2018-01-14T18:47:07.496Z,79.92
2018-01-14T18:49:35.339Z,76.26
2018-01-14T18:52:03.193Z,76.59
2018-01-14T18:54:31.159Z,79.42
2018-01-14T18:57:00.032Z,80.33
2018-01-14T18:59:28.916Z,79.53
2018-01-14T19:01:57.015Z,79.88
2018-01-14T19:04:25.381Z,77.92
2018-01-14T19:06:53.544Z,79.77
2018-01-14T19:09:22.437Z,81.11
2018-01-14T19:11:50.592Z,79.21
2018-01-14T19:14:18.545Z,79.75
2018-01-14T19:16:46.593Z,80.07
2018-01-14T19:19:17.808Z,80.27
2018-01-14T19:21:46.188Z,80.40
2018-01-14T19:24:14.070Z,79.71
2018-01-14T19:26:41.930Z,79.67
2018-01-14T19:29:09.801Z,79.60
2018-01-14T19:31:37.597Z,80.41
2018-01-14T19:34:05.747Z,81.32
2018-01-14T19:36:33.863Z,81.66
2018-01-14T19:39:02.005Z,81.05
2018-01-14T19:41:30.946Z,74.73
2018-01-14T19:43:58.932Z,73.67
2018-01-14T19:46:26.727Z,72.70
2018-01-14T19:48:54.425Z,73.49
2018-01-14T19:51:22.258Z,74.13
2018-01-14T19:53:51.096Z,75.85
2018-01-14T19:56:18.920Z,78.65
2018-01-14T19:58:46.667Z,80.03
2018-01-14T20:01:14.516Z,80.05
2018-01-14T20:03:42.501Z,79.75
2018-01-14T20:06:10.314Z,79.58
2018-01-14T20:08:38.046Z,79.77
2018-01-14T20:11:06.747Z,80.06
2018-01-14T20:13:34.721Z,79.10
2018-01-14T20:16:02.522Z,78.81
2018-01-14T20:18:30.221Z,79.04
2018-01-14T20:20:58.194Z,80.21
2018-01-14T20:23:26.158Z,81.58
2018-01-14T20:25:53.998Z,81.76
2018-01-14T20:28:21.892Z,81.19
2018-01-14T20:30:49.621Z,80.60
2018-01-14T20:33:17.519Z,81.29
2018-01-14T20:35:45.888Z,82.19
2018-01-14T20:38:13.680Z,82.86
2018-01-14T20:40:41.550Z,82.95
2018-01-14T20:43:09.397Z,83.26
2018-01-14T20:45:37.270Z,83.63
2018-01-14T20:48:05.338Z,83.47
2018-01-14T20:50:33.167Z,83.34
2018-01-14T20:53:01.055Z,83.04
2018-01-14T20:55:28.852Z,82.89
2018-01-14T20:57:56.681Z,83.05
2018-01-14T21:00:24.457Z,81.91
2018-01-14T21:02:53.009Z,80.90
2018-01-14T21:05:21.923Z,77.40
2018-01-14T21:07:49.921Z,79.47
2018-01-14T21:10:17.701Z,81.88
2018-01-14T21:12:45.557Z,82.92
2018-01-14T21:15:13.509Z,83.25
2018-01-14T21:17:41.391Z,84.61
2018-01-14T21:20:10.914Z,84.58
2018-01-14T21:22:39.904Z,80.61
2018-01-14T21:25:07.635Z,75.64
2018-01-14T21:27:35.444Z,76.79
2018-01-14T21:30:03.321Z,73.04
2018-01-14T21:32:32.457Z,73.67
2018-01-14T21:35:00.230Z,75.83
2018-01-14T21:37:28.579Z,77.07
2018-01-14T21:39:56.715Z,77.53
2018-01-14T21:42:25.273Z,78.34
2018-01-14T21:44:53.063Z,77.67
2018-01-14T21:47:21.433Z,79.11
2018-01-14T21:49:50.374Z,81.39
2018-01-14T21:52:18.176Z,81.99
2018-01-14T21:54:46.093Z,82.23
2018-01-14T21:57:13.807Z,82.28
2018-01-14T21:59:41.552Z,82.04
2018-01-14T22:02:09.283Z,81.46
2018-01-14T22:04:37.046Z,77.42
2018-01-14T22:07:05.044Z,74.90
2018-01-14T22:09:32.784Z,75.75
2018-01-14T22:12:00.528Z,72.71
2018-01-14T22:14:29.471Z,72.08
2018-01-14T22:16:57.222Z,74.35
2018-01-14T22:19:25.324Z,73.79
2018-01-14T22:21:53.012Z,71.96
2018-01-14T22:24:21.533Z,73.31
2018-01-14T22:26:49.288Z,73.34
2018-01-14T22:29:17.026Z,70.27
2018-01-14T22:31:45.992Z,71.85
2018-01-14T22:34:14.268Z,72.04
2018-01-14T22:36:41.953Z,71.82
2018-01-14T22:39:09.683Z,72.61
2018-01-14T22:41:37.392Z,72.46
2018-01-14T22:44:05.135Z,70.86
2018-01-14T22:46:32.808Z,70.97
2018-01-14T22:49:00.536Z,72.99
2018-01-14T22:51:28.249Z,75.00
2018-01-14T22:53:55.963Z,76.24
2018-01-14T22:56:23.730Z,74.90
2018-01-14T22:58:51.585Z,75.04
2018-01-14T23:01:19.358Z,75.68
2018-01-14T23:03:47.116Z,74.98
2018-01-14T23:06:14.799Z,71.31
2018-01-14T23:08:42.578Z,78.50
2018-01-14T23:11:10.297Z,79.72
2018-01-14T23:13:38.088Z,80.65
2018-01-14T23:16:05.859Z,82.17
2018-01-14T23:18:34.520Z,82.75
2018-01-14T23:21:02.763Z,82.70
2018-01-14T23:23:30.425Z,82.80
2018-01-14T23:25:58.120Z,83.67
2018-01-14T23:28:25.840Z,83.91
2018-01-14T23:30:53.576Z,82.26
2018-01-14T23:33:21.299Z,81.66
2018-01-14T23:35:49.003Z,81.35
2018-01-14T23:38:16.839Z,81.74
2018-01-14T23:40:44.513Z,77.94
2018-01-14T23:43:12.214Z,74.65
2018-01-14T23:45:39.966Z,73.93
2018-01-14T23:48:07.751Z,74.09
2018-01-14T23:50:35.430Z,76.39
2018-01-14T23:53:03.171Z,79.08
2018-01-14T23:55:31.016Z,80.77
2018-01-14T23:57:58.712Z,81.70
